createdAt,value
2023-01-17T00:29:39.693Z,974.77
2023-01-17T00:30:20.243Z,974.69
2023-01-17T00:31:00.741Z,974.68
2023-01-17T00:31:41.188Z,974.79
2023-01-17T00:32:21.624Z,974.8
2023-01-17T00:33:02.115Z,974.75
2023-01-17T00:33:42.604Z,974.8
2023-01-17T00:34:23.141Z,974.78
2023-01-17T00:35:03.608Z,974.8
2023-01-17T00:35:50.992Z,974.81
2023-01-17T00:36:31.477Z,974.89
2023-01-17T00:37:11.985Z,974.88
2023-01-17T00:37:52.454Z,974.85
2023-01-17T00:38:32.928Z,974.8
2023-01-17T00:39:13.431Z,974.84
2023-01-17T00:39:53.912Z,974.89
2023-01-17T00:40:34.370Z,974.81
2023-01-17T00:41:14.904Z,974.68
2023-01-17T00:41:55.336Z,974.85
2023-01-17T00:42:35.816Z,974.85
2023-01-17T00:43:16.311Z,974.96
2023-01-17T00:43:56.816Z,974.92
2023-01-17T00:44:37.311Z,974.95
2023-01-17T00:45:17.941Z,975.04
2023-01-17T00:45:58.325Z,975.03
2023-01-17T00:46:38.874Z,975.06
2023-01-17T00:47:19.274Z,975.11
2023-01-17T00:47:59.789Z,975.12
2023-01-17T00:48:40.561Z,975.17
2023-01-17T00:49:21.017Z,975
2023-01-17T00:50:01.495Z,975.05
2023-01-17T00:50:41.990Z,975.27
2023-01-17T00:51:22.467Z,975.16
2023-01-17T00:52:02.947Z,975.09
2023-01-17T00:52:43.434Z,975.18
2023-01-17T00:53:23.917Z,975.13
2023-01-17T00:54:04.402Z,975.25
2023-01-17T00:54:44.909Z,975.29
2023-01-17T00:55:25.349Z,975.28
2023-01-17T00:56:05.850Z,975.28
2023-01-17T00:56:46.365Z,975.36
2023-01-17T00:57:26.868Z,975.43
2023-01-17T00:58:07.319Z,975.41
2023-01-17T00:58:47.812Z,975.45
2023-01-17T00:59:28.314Z,975.45
2023-01-17T01:00:08.768Z,975.41
2023-01-17T01:00:49.454Z,975.4
2023-01-17T01:01:29.835Z,975.4
2023-01-17T01:02:10.456Z,975.4
2023-01-17T01:02:51.339Z,975.48
2023-01-17T01:04:12.296Z,975.46
2023-01-17T01:04:52.737Z,975.26
2023-01-17T01:05:33.214Z,975.43
2023-01-17T01:06:13.731Z,975.49
2023-01-17T01:06:54.193Z,975.31
2023-01-17T01:07:34.734Z,975.47
2023-01-17T01:08:15.175Z,975.45
2023-01-17T01:08:55.657Z,975.48
2023-01-17T01:09:36.159Z,975.47
2023-01-17T01:10:16.693Z,975.43
2023-01-17T01:10:57.185Z,975.56
2023-01-17T01:11:37.692Z,975.58
2023-01-17T01:12:18.256Z,975.52
2023-01-17T01:12:58.737Z,975.59
2023-01-17T01:13:39.200Z,975.6
2023-01-17T01:14:19.691Z,975.6
2023-01-17T01:15:00.746Z,975.58
2023-01-17T01:15:41.208Z,975.54
2023-01-17T01:16:21.856Z,975.46
2023-01-17T01:17:02.249Z,975.58
2023-01-17T01:17:42.728Z,975.73
2023-01-17T01:18:23.295Z,975.66
2023-01-17T01:19:03.776Z,975.62
2023-01-17T01:19:44.288Z,975.65
2023-01-17T01:20:24.771Z,975.57
2023-01-17T01:21:05.242Z,975.62
2023-01-17T01:21:45.753Z,975.67
2023-01-17T01:22:26.207Z,975.72
2023-01-17T01:23:06.704Z,975.74
2023-01-17T01:23:47.198Z,975.8
2023-01-17T01:24:27.703Z,975.75
2023-01-17T01:25:08.204Z,975.83
2023-01-17T01:26:29.201Z,975.88
2023-01-17T01:27:09.682Z,975.7
2023-01-17T01:27:50.189Z,975.84
2023-01-17T01:28:30.744Z,975.82
2023-01-17T01:29:11.162Z,975.85
2023-01-17T01:29:51.679Z,975.85
2023-01-17T01:30:32.179Z,975.97
2023-01-17T01:31:12.716Z,975.96
2023-01-17T01:31:53.243Z,975.9
2023-01-17T01:32:33.691Z,975.87
2023-01-17T01:33:14.138Z,975.97
2023-01-17T01:33:54.624Z,976.02
2023-01-17T01:34:35.092Z,976.07
2023-01-17T01:35:15.598Z,975.97
2023-01-17T01:35:56.082Z,976.01
2023-01-17T01:36:36.553Z,976.01
2023-01-17T01:37:17.758Z,975.88
2023-01-17T01:37:58.232Z,976.06
2023-01-17T01:38:38.743Z,976.05
2023-01-17T01:39:19.852Z,976.04
2023-01-17T01:40:00.346Z,976.08
2023-01-17T01:40:40.833Z,976.02
2023-01-17T01:41:21.314Z,976.05
2023-01-17T01:42:01.829Z,976.09
2023-01-17T01:42:42.308Z,976.08
2023-01-17T01:43:23.677Z,976.17
2023-01-17T01:44:44.637Z,976.13
2023-01-17T01:45:25.170Z,976.15
2023-01-17T01:46:05.752Z,976.16
2023-01-17T01:46:46.122Z,976.2
2023-01-17T01:47:26.674Z,976.24
2023-01-17T01:48:07.096Z,976.13
2023-01-17T01:48:47.602Z,976.23
2023-01-17T01:49:28.110Z,976.22
2023-01-17T01:50:08.607Z,976.15
2023-01-17T01:50:49.124Z,976.21
2023-01-17T01:51:29.558Z,976.14
2023-01-17T01:52:10.020Z,976.22
2023-01-17T01:52:50.503Z,976.29
2023-01-17T01:53:31.011Z,976.16
2023-01-17T01:54:11.506Z,976.19
2023-01-17T01:54:51.990Z,976.24
2023-01-17T01:55:32.481Z,976.13
2023-01-17T01:56:13.006Z,976.25
2023-01-17T01:57:33.926Z,976.3
2023-01-17T01:58:14.461Z,976.23
2023-01-17T01:58:54.953Z,976.26
2023-01-17T01:59:35.481Z,976.13
2023-01-17T02:00:15.952Z,976.36
2023-01-17T02:00:56.521Z,976.32
2023-01-17T02:01:37.141Z,976.38
2023-01-17T02:02:17.483Z,976.37
2023-01-17T02:02:58.661Z,976.37
2023-01-17T02:03:39.164Z,976.47
2023-01-17T02:04:19.648Z,976.51
2023-01-17T02:05:00.096Z,976.56
2023-01-17T02:05:40.594Z,976.5
2023-01-17T02:06:21.076Z,976.54
2023-01-17T02:07:42.062Z,976.59
2023-01-17T02:08:22.561Z,976.58
2023-01-17T02:09:03.055Z,976.6
2023-01-17T02:09:43.546Z,976.59
2023-01-17T02:10:24.039Z,976.53
2023-01-17T02:11:04.511Z,976.62
2023-01-17T02:11:45.056Z,976.64
2023-01-17T02:12:25.498Z,976.7
2023-01-17T02:13:05.994Z,976.69
2023-01-17T02:13:46.533Z,976.67
2023-01-17T02:14:26.988Z,976.68
2023-01-17T02:15:07.480Z,976.69
2023-01-17T02:15:47.992Z,976.62
2023-01-17T02:16:28.702Z,976.65
2023-01-17T02:17:08.947Z,976.7
2023-01-17T02:17:49.424Z,976.66
2023-01-17T02:18:29.923Z,976.72
2023-01-17T02:19:10.394Z,976.71
2023-01-17T02:19:50.883Z,976.72
2023-01-17T02:20:31.395Z,976.78
2023-01-17T02:21:11.845Z,976.76
2023-01-17T02:21:52.369Z,976.76
2023-01-17T02:22:32.881Z,976.72
2023-01-17T02:23:13.399Z,976.81
2023-01-17T02:24:34.381Z,976.8
2023-01-17T02:25:14.836Z,976.82
2023-01-17T02:25:55.329Z,976.74
2023-01-17T02:26:35.814Z,976.81
2023-01-17T02:27:16.306Z,976.84
2023-01-17T02:27:56.801Z,976.68
2023-01-17T02:28:37.297Z,976.86
2023-01-17T02:29:17.772Z,976.79
2023-01-17T02:29:58.272Z,976.84
2023-01-17T02:30:38.754Z,976.85
2023-01-17T02:31:19.283Z,976.88
2023-01-17T02:31:59.811Z,976.91
2023-01-17T02:32:40.245Z,976.88
2023-01-17T02:33:20.722Z,976.87
2023-01-17T02:34:01.227Z,976.9
2023-01-17T02:34:41.737Z,976.88
2023-01-17T02:36:02.699Z,976.77
2023-01-17T02:36:43.225Z,976.88
2023-01-17T02:37:23.720Z,976.9
2023-01-17T02:38:04.234Z,976.86
2023-01-17T02:38:44.815Z,976.74
2023-01-17T02:39:25.241Z,976.93
2023-01-17T02:40:05.775Z,976.85
2023-01-17T02:40:46.251Z,976.86
2023-01-17T02:41:26.742Z,976.87
2023-01-17T02:42:07.215Z,976.88
2023-01-17T02:42:47.714Z,976.93
2023-01-17T02:43:28.199Z,976.83
2023-01-17T02:44:08.701Z,976.9
2023-01-17T02:44:49.203Z,976.9
2023-01-17T02:45:29.729Z,976.87
2023-01-17T02:46:10.258Z,976.92
2023-01-17T02:46:50.666Z,976.92
2023-01-17T02:47:31.162Z,976.95
2023-01-17T02:48:11.656Z,976.96
2023-01-17T02:48:53.152Z,976.84
2023-01-17T02:49:33.682Z,976.9
2023-01-17T02:50:14.206Z,976.83
2023-01-17T02:50:54.705Z,976.88
2023-01-17T02:51:35.200Z,976.96
2023-01-17T02:52:15.723Z,976.96
2023-01-17T02:52:56.299Z,976.96
2023-01-17T02:53:36.733Z,976.96
2023-01-17T02:54:17.230Z,977.01
2023-01-17T02:54:57.714Z,976.91
2023-01-17T02:55:38.175Z,977.01
2023-01-17T02:56:18.679Z,977.07
2023-01-17T02:56:59.107Z,977.08
2023-01-17T02:57:39.593Z,977.06
2023-01-17T02:58:20.094Z,977.02
2023-01-17T02:59:00.610Z,977.06
2023-01-17T02:59:41.146Z,977.02
2023-01-17T03:00:21.651Z,977.01
2023-01-17T03:01:02.280Z,977.02
2023-01-17T03:01:42.709Z,977.04
2023-01-17T03:02:23.219Z,977.06
2023-01-17T03:03:03.650Z,977.06
2023-01-17T03:03:44.160Z,977.09
2023-01-17T03:04:24.680Z,977.1
2023-01-17T03:05:05.213Z,977.08
2023-01-17T03:05:45.643Z,977.05
2023-01-17T03:06:26.185Z,976.98
2023-01-17T03:07:06.678Z,976.98
2023-01-17T03:07:47.171Z,976.99
2023-01-17T03:08:27.699Z,977.06
2023-01-17T03:09:08.115Z,977.12
2023-01-17T03:09:48.613Z,977.09
2023-01-17T03:10:29.127Z,977.06
2023-01-17T03:11:09.614Z,977.08
2023-01-17T03:11:50.073Z,977.05
2023-01-17T03:12:30.596Z,977.09
2023-01-17T03:13:11.066Z,977.09
2023-01-17T03:13:51.545Z,977.07
2023-01-17T03:14:32.097Z,977.04
2023-01-17T03:15:53.074Z,977.1
2023-01-17T03:16:33.636Z,977.06
2023-01-17T03:17:14.018Z,977.1
2023-01-17T03:17:54.548Z,977.15
2023-01-17T03:18:35.912Z,977.13
2023-01-17T03:19:16.430Z,977.07
2023-01-17T03:19:56.931Z,977.04
2023-01-17T03:20:37.496Z,977.04
2023-01-17T03:21:17.941Z,977.09
2023-01-17T03:21:58.428Z,977.13
2023-01-17T03:22:38.937Z,977.08
2023-01-17T03:23:19.430Z,977.08
2023-01-17T03:23:59.942Z,977.13
2023-01-17T03:24:40.395Z,977.08
2023-01-17T03:25:20.908Z,977.13
2023-01-17T03:26:01.402Z,977.11
2023-01-17T03:26:41.919Z,977.12
2023-01-17T03:27:22.455Z,977.14
2023-01-17T03:28:02.888Z,977.21
2023-01-17T03:28:43.325Z,977.21
2023-01-17T03:29:23.806Z,977.15
2023-01-17T03:30:04.303Z,977.2
2023-01-17T03:30:44.793Z,977.22
2023-01-17T03:31:25.256Z,977.27
2023-01-17T03:32:05.768Z,977.24
2023-01-17T03:32:46.228Z,977.23
2023-01-17T03:33:26.729Z,977.26
2023-01-17T03:34:07.225Z,977.27
2023-01-17T03:34:47.695Z,977.27
2023-01-17T03:35:28.191Z,977.26
2023-01-17T03:36:08.687Z,977.25
2023-01-17T03:36:49.199Z,977.34
2023-01-17T03:37:29.641Z,977.38
2023-01-17T03:38:10.158Z,977.36
2023-01-17T03:38:50.612Z,977.33
2023-01-17T03:39:31.106Z,977.34
2023-01-17T03:40:52.064Z,977.41
2023-01-17T03:41:32.560Z,977.34
2023-01-17T03:42:13.113Z,977.38
2023-01-17T03:42:53.593Z,977.38
2023-01-17T03:43:34.088Z,977.41
2023-01-17T03:44:14.604Z,977.37
2023-01-17T03:44:55.121Z,977.42
2023-01-17T03:45:35.735Z,977.35
2023-01-17T03:46:16.158Z,977.36
2023-01-17T03:46:56.651Z,977.41
2023-01-17T03:48:17.618Z,977.41
2023-01-17T03:48:58.121Z,977.39
2023-01-17T03:49:38.620Z,977.34
2023-01-17T03:50:19.114Z,977.3
2023-01-17T03:50:59.576Z,977.29
2023-01-17T03:51:40.180Z,977.37
2023-01-17T03:52:20.531Z,977.39
2023-01-17T03:53:01.063Z,977.36
2023-01-17T03:53:41.509Z,977.36
2023-01-17T03:54:21.983Z,977.44
2023-01-17T03:55:02.473Z,977.38
2023-01-17T03:55:42.944Z,977.38
2023-01-17T03:56:23.435Z,977.41
2023-01-17T03:57:03.915Z,977.43
2023-01-17T03:57:44.460Z,977.44
2023-01-17T03:58:24.978Z,977.44
2023-01-17T03:59:05.431Z,977.43
2023-01-17T03:59:45.966Z,977.4
2023-01-17T04:00:26.438Z,977.4
2023-01-17T04:01:07.056Z,977.38
2023-01-17T04:01:47.627Z,977.43
2023-01-17T04:02:28.001Z,977.37
2023-01-17T04:03:08.478Z,977.37
2023-01-17T04:03:48.946Z,977.38
2023-01-17T04:04:29.506Z,977.4
2023-01-17T04:05:10.018Z,977.43
2023-01-17T04:05:50.415Z,977.38
2023-01-17T04:06:30.952Z,977.42
2023-01-17T04:07:11.421Z,977.41
2023-01-17T04:07:51.943Z,977.38
2023-01-17T04:08:32.408Z,977.34
2023-01-17T04:09:12.896Z,977.46
2023-01-17T04:09:53.398Z,977.42
2023-01-17T04:10:33.857Z,977.47
2023-01-17T04:11:14.386Z,977.49
2023-01-17T04:11:54.833Z,977.4
2023-01-17T04:12:36.215Z,977.44
2023-01-17T04:13:15.854Z,977.54
2023-01-17T04:13:56.370Z,977.54
2023-01-17T04:14:36.884Z,977.38
2023-01-17T04:15:17.361Z,977.43
2023-01-17T04:15:57.819Z,977.5
2023-01-17T04:16:38.394Z,977.54
2023-01-17T04:17:18.771Z,977.51
2023-01-17T04:17:59.279Z,977.53
2023-01-17T04:18:39.765Z,977.48
2023-01-17T04:19:20.263Z,977.54
2023-01-17T04:20:00.744Z,977.53
2023-01-17T04:20:41.259Z,977.49
2023-01-17T04:21:21.760Z,977.54
2023-01-17T04:22:02.245Z,977.54
2023-01-17T04:22:42.780Z,977.54
2023-01-17T04:23:23.288Z,977.55
2023-01-17T04:24:03.796Z,977.58
2023-01-17T04:24:44.306Z,977.58
2023-01-17T04:25:24.797Z,977.55
2023-01-17T04:26:05.272Z,977.58
2023-01-17T04:26:45.762Z,977.62
2023-01-17T04:27:26.285Z,977.6
2023-01-17T04:28:06.744Z,977.6
2023-01-17T04:28:47.253Z,977.62
2023-01-17T04:29:27.752Z,977.61
2023-01-17T04:30:08.245Z,977.55
2023-01-17T04:30:48.836Z,977.59
2023-01-17T04:31:29.294Z,977.56
2023-01-17T04:32:09.730Z,977.6
2023-01-17T04:32:50.234Z,977.61
2023-01-17T04:33:30.703Z,977.6
2023-01-17T04:34:11.203Z,977.58
2023-01-17T04:34:51.724Z,977.62
2023-01-17T04:35:32.272Z,977.63
2023-01-17T04:36:12.784Z,977.61
2023-01-17T04:36:53.285Z,977.62
2023-01-17T04:38:14.298Z,977.66
2023-01-17T04:38:54.797Z,977.6
2023-01-17T04:39:35.297Z,977.64
2023-01-17T04:40:15.797Z,977.62
2023-01-17T04:40:56.297Z,977.65
2023-01-17T04:41:36.793Z,977.6
2023-01-17T04:42:17.268Z,977.61
2023-01-17T04:42:57.793Z,977.59
2023-01-17T04:43:38.278Z,977.59
2023-01-17T04:44:18.803Z,977.56
2023-01-17T04:44:59.314Z,977.59
2023-01-17T04:45:39.771Z,977.59
2023-01-17T04:46:20.298Z,977.61
2023-01-17T04:47:00.778Z,977.63
2023-01-17T04:47:41.268Z,977.63
2023-01-17T04:48:21.780Z,977.63
2023-01-17T04:49:02.286Z,977.67
2023-01-17T04:49:44.156Z,977.63
2023-01-17T04:50:23.281Z,977.63
2023-01-17T04:51:03.774Z,977.64
2023-01-17T04:51:44.227Z,977.63
2023-01-17T04:52:24.823Z,977.66
2023-01-17T04:53:05.322Z,977.6
2023-01-17T04:53:45.832Z,977.63
2023-01-17T04:54:26.285Z,977.64
2023-01-17T04:55:06.790Z,977.66
2023-01-17T04:55:47.284Z,977.64
2023-01-17T04:56:27.785Z,977.67
2023-01-17T04:57:08.455Z,977.67
2023-01-17T04:57:48.894Z,977.68
2023-01-17T04:58:29.336Z,977.74
2023-01-17T04:59:09.931Z,977.77
2023-01-17T05:00:31.916Z,977.77
2023-01-17T05:01:12.619Z,977.75
2023-01-17T05:01:53.088Z,977.79
2023-01-17T05:02:33.586Z,977.8
2023-01-17T05:03:14.062Z,977.78
2023-01-17T05:03:54.543Z,977.81
2023-01-17T05:04:35.139Z,977.84
2023-01-17T05:05:15.636Z,977.82
2023-01-17T05:05:56.136Z,977.83
2023-01-17T05:06:36.682Z,977.82
2023-01-17T05:07:17.189Z,977.81
2023-01-17T05:07:57.720Z,977.78
2023-01-17T05:08:38.248Z,977.79
2023-01-17T05:09:19.755Z,977.72
2023-01-17T05:10:00.237Z,977.77
2023-01-17T05:10:40.749Z,977.78
2023-01-17T05:11:21.325Z,977.72
2023-01-17T05:12:01.915Z,977.77
2023-01-17T05:12:42.553Z,977.7
2023-01-17T05:13:23.013Z,977.72
2023-01-17T05:14:03.558Z,977.77
2023-01-17T05:14:44.062Z,977.74
2023-01-17T05:15:24.593Z,977.73
2023-01-17T05:16:05.044Z,977.75
2023-01-17T05:16:45.513Z,977.78
2023-01-17T05:17:26.065Z,977.77
2023-01-17T05:18:06.540Z,977.75
2023-01-17T05:18:47.077Z,977.79
2023-01-17T05:19:27.934Z,977.76
2023-01-17T05:20:08.453Z,977.77
2023-01-17T05:20:48.907Z,977.75
2023-01-17T05:21:29.406Z,977.78
2023-01-17T05:22:10.401Z,977.78
2023-01-17T05:22:50.956Z,977.73
2023-01-17T05:23:31.438Z,977.75
2023-01-17T05:24:11.904Z,977.74
2023-01-17T05:24:52.387Z,977.75
2023-01-17T05:25:32.907Z,977.79
2023-01-17T05:26:13.380Z,977.74
2023-01-17T05:28:26.674Z,977.81
2023-01-17T05:29:07.137Z,977.79
2023-01-17T05:29:47.679Z,977.8
2023-01-17T05:30:28.196Z,977.78
2023-01-17T05:31:09.026Z,977.8
2023-01-17T05:31:49.323Z,977.82
2023-01-17T05:32:29.829Z,977.85
2023-01-17T05:33:10.411Z,977.82
2023-01-17T05:33:50.807Z,977.85
2023-01-17T05:34:31.352Z,977.88
2023-01-17T05:35:11.836Z,977.84
2023-01-17T05:35:52.325Z,977.87
2023-01-17T05:36:32.814Z,977.84
2023-01-17T05:37:13.288Z,977.87
2023-01-17T05:37:53.847Z,977.84
2023-01-17T05:38:34.355Z,977.89
2023-01-17T05:39:14.843Z,977.87
2023-01-17T05:39:55.432Z,977.86
2023-01-17T05:40:35.852Z,977.87
2023-01-17T05:41:16.384Z,977.86
2023-01-17T05:44:30.094Z,977.9
2023-01-17T05:45:10.600Z,977.86
2023-01-17T05:45:51.105Z,977.89
2023-01-17T05:46:31.637Z,977.89
2023-01-17T05:47:12.073Z,977.87
2023-01-17T05:47:52.619Z,977.89
2023-01-17T05:48:33.196Z,977.9
2023-01-17T05:49:13.719Z,977.93
2023-01-17T05:49:54.943Z,977.94
2023-01-17T05:50:35.463Z,977.93
2023-01-17T05:51:15.980Z,977.93
2023-01-17T05:51:56.497Z,977.94
2023-01-17T05:52:36.987Z,977.94
2023-01-17T05:53:17.498Z,977.98
2023-01-17T05:53:58.000Z,977.94
2023-01-17T06:31:21.928Z,978.1
2023-01-17T06:32:02.443Z,978.07
2023-01-17T06:32:43.044Z,978.09
2023-01-17T06:33:23.627Z,978.08
2023-01-17T06:34:04.084Z,978.13
2023-01-17T06:34:44.613Z,978.16
2023-01-17T06:35:25.146Z,978.13
2023-01-17T06:36:05.717Z,978.15
2023-01-17T06:36:46.198Z,978.17
2023-01-17T06:37:26.717Z,978.17
2023-01-17T06:38:07.269Z,978.19
2023-01-17T06:38:47.818Z,978.19
2023-01-17T06:39:28.352Z,978.16
2023-01-17T06:40:49.402Z,978.23
2023-01-17T06:41:29.941Z,978.22
2023-01-17T06:42:10.482Z,978.22
2023-01-17T06:42:51.008Z,978.18
2023-01-17T06:43:31.555Z,978.19
2023-01-17T06:44:12.051Z,978.2
2023-01-17T06:44:52.629Z,978.23
2023-01-17T06:45:33.164Z,978.23
2023-01-17T06:46:13.725Z,978.24
2023-01-17T06:46:54.278Z,978.21
2023-01-17T06:47:34.663Z,978.21
2023-01-17T06:48:15.856Z,978.22
2023-01-17T06:48:56.376Z,978.2
2023-01-17T06:49:37.140Z,978.17
2023-01-17T06:50:58.215Z,978.19
2023-01-17T06:51:38.964Z,978.18
2023-01-17T06:52:19.382Z,978.17
2023-01-17T06:52:59.904Z,978.16
2023-01-17T06:53:40.448Z,978.14
2023-01-17T06:54:20.945Z,978.14
2023-01-17T06:55:01.643Z,978.13
2023-01-17T06:55:42.093Z,978.15
2023-01-17T06:56:22.670Z,978.12
2023-01-17T06:57:03.251Z,978.11
2023-01-17T06:57:44.165Z,978.14
2023-01-17T06:58:24.764Z,978.1
2023-01-17T06:59:05.336Z,978.06
2023-01-17T06:59:45.895Z,978.12
2023-01-17T07:00:26.457Z,978.15
2023-01-17T07:01:07.068Z,978.12
2023-01-17T07:01:47.473Z,978.16
2023-01-17T07:02:28.096Z,978.13
2023-01-17T07:03:08.605Z,978.14
2023-01-17T07:03:49.242Z,978.18
2023-01-17T07:04:29.843Z,978.19
2023-01-17T07:05:10.354Z,978.13
2023-01-17T07:05:50.917Z,978.18
2023-01-17T07:06:31.432Z,978.16
2023-01-17T07:07:12.070Z,978.15
2023-01-17T07:07:52.450Z,978.16
2023-01-17T07:08:33.031Z,978.14
2023-01-17T07:09:14.632Z,978.08
2023-01-17T07:09:54.234Z,978.12
2023-01-17T07:10:34.798Z,978.13
2023-01-17T07:11:15.383Z,978.16
2023-01-17T07:11:55.974Z,978.16
2023-01-17T07:12:36.628Z,978.15
2023-01-17T07:13:17.121Z,978.14
2023-01-17T07:13:57.616Z,978.2
2023-01-17T07:14:38.387Z,978.18
2023-01-17T07:15:19.023Z,978.22
2023-01-17T07:15:59.658Z,978.22
2023-01-17T07:16:40.684Z,978.19
2023-01-17T07:17:21.369Z,978.2
2023-01-17T07:18:01.980Z,978.19
2023-01-17T07:18:42.532Z,978.23
2023-01-17T07:19:23.132Z,978.2
2023-01-17T07:20:03.573Z,978.22
2023-01-17T07:20:44.200Z,978.25
2023-01-17T07:21:24.956Z,978.23
2023-01-17T07:22:05.710Z,978.23
2023-01-17T07:22:46.551Z,978.17
2023-01-17T07:23:27.085Z,978.2
2023-01-17T07:24:07.708Z,978.19
2023-01-17T07:24:48.560Z,978.18
2023-01-17T07:25:29.172Z,978.19
2023-01-17T07:26:09.751Z,978.19
2023-01-17T07:26:50.241Z,978.15
2023-01-17T07:28:11.362Z,978.17
2023-01-17T07:28:52.634Z,978.19
2023-01-17T07:29:33.197Z,978.2
2023-01-17T07:30:13.813Z,978.23
2023-01-17T07:30:54.301Z,978.24
2023-01-17T07:31:34.871Z,978.21
2023-01-17T07:32:15.341Z,978.26
2023-01-17T07:32:55.941Z,978.26
2023-01-17T07:33:36.554Z,978.24
2023-01-17T07:34:17.273Z,978.3
2023-01-17T07:34:58.270Z,978.29
2023-01-17T07:35:38.935Z,978.31
2023-01-17T07:36:19.403Z,978.3
2023-01-17T07:36:59.881Z,978.3
2023-01-17T07:37:40.387Z,978.26
2023-01-17T07:38:21.129Z,978.29
2023-01-17T07:39:01.477Z,978.31
2023-01-17T07:39:42.059Z,978.28
2023-01-17T07:40:23.407Z,978.28
2023-01-17T07:41:04.210Z,978.29
2023-01-17T07:44:03.838Z,978.29
2023-01-17T07:47:34.261Z,978.33
2023-01-17T07:48:15.890Z,978.35
2023-01-17T07:51:30.380Z,978.36
2023-01-17T07:52:12.181Z,978.4
2023-01-17T07:52:53.066Z,978.39
2023-01-17T07:53:33.806Z,978.41
2023-01-17T07:54:14.655Z,978.41
2023-01-17T07:54:55.193Z,978.42
2023-01-17T07:55:36.494Z,978.44
2023-01-17T07:56:17.198Z,978.44
2023-01-17T07:56:57.670Z,978.43
2023-01-17T07:57:38.285Z,978.46
2023-01-17T07:58:18.907Z,978.47
2023-01-17T07:59:00.423Z,978.47
2023-01-17T07:59:41.041Z,978.43
2023-01-17T08:00:22.403Z,978.47
2023-01-17T08:01:03.048Z,978.53
2023-01-17T08:01:43.726Z,978.45
2023-01-17T08:02:24.204Z,978.49
2023-01-17T08:03:04.804Z,978.44
2023-01-17T08:03:45.539Z,978.46
2023-01-17T08:07:20.378Z,978.42
2023-01-17T08:08:02.144Z,978.42
2023-01-17T08:08:43.182Z,978.43
2023-01-17T08:09:25.258Z,978.41
2023-01-17T08:10:06.535Z,978.4
2023-01-17T08:10:49.844Z,978.37
2023-01-17T08:11:31.148Z,978.39
2023-01-17T08:12:12.949Z,978.39
2023-01-17T08:15:34.218Z,978.35
2023-01-17T08:16:15.270Z,978.37
2023-01-17T08:16:56.058Z,978.39
2023-01-17T08:17:36.720Z,978.37
2023-01-17T08:18:18.218Z,978.39
2023-01-17T08:18:59.243Z,978.4
2023-01-17T08:19:40.090Z,978.41
2023-01-17T08:20:20.554Z,978.38
2023-01-17T08:21:01.182Z,978.39
2023-01-17T08:21:41.709Z,978.38
2023-01-17T08:22:23.116Z,978.35
2023-01-17T08:23:03.834Z,978.33
2023-01-17T08:23:44.731Z,978.34
2023-01-17T08:24:25.275Z,978.36
2023-01-17T08:25:05.961Z,978.36
2023-01-17T08:25:46.615Z,978.31
2023-01-17T08:26:27.336Z,978.28
2023-01-17T08:27:07.861Z,978.27
2023-01-17T08:27:48.404Z,978.32
2023-01-17T08:28:29.028Z,978.31
2023-01-17T08:29:09.836Z,978.3
2023-01-17T08:29:52.115Z,978.31
2023-01-17T08:30:32.768Z,978.28
2023-01-17T08:31:13.504Z,978.31
2023-01-17T08:31:54.129Z,978.27
2023-01-17T08:33:15.464Z,978.31
2023-01-17T08:33:56.540Z,978.31
2023-01-17T08:34:37.710Z,978.3
2023-01-17T08:35:59.085Z,978.31
2023-01-17T08:36:39.997Z,978.34
2023-01-17T08:37:20.592Z,978.24
2023-01-17T08:38:01.132Z,978.28
2023-01-17T08:38:41.794Z,978.3
2023-01-17T08:39:22.210Z,978.33
2023-01-17T08:40:02.969Z,978.29
2023-01-17T08:40:44.399Z,978.36
2023-01-17T08:41:24.772Z,978.33
2023-01-17T08:42:05.418Z,978.35
2023-01-17T08:42:45.876Z,978.32
2023-01-17T08:43:27.034Z,978.32
2023-01-17T08:44:07.684Z,978.37
2023-01-17T08:44:48.260Z,978.38
2023-01-17T08:45:29.635Z,978.37
2023-01-17T08:46:10.215Z,978.35
2023-01-17T08:46:50.839Z,978.37
2023-01-17T08:47:31.486Z,978.36
2023-01-17T08:48:12.092Z,978.35
2023-01-17T08:48:53.176Z,978.41
2023-01-17T08:49:33.700Z,978.42
2023-01-17T08:50:14.581Z,978.44
2023-01-17T08:51:36.093Z,978.45
2023-01-17T08:52:16.693Z,978.49
2023-01-17T08:52:59.100Z,978.48
2023-01-17T08:53:39.683Z,978.51
2023-01-17T08:55:45.377Z,978.52
2023-01-17T08:56:25.807Z,978.56
2023-01-17T08:57:07.390Z,978.55
2023-01-17T08:57:47.225Z,978.53
2023-01-17T08:59:09.788Z,978.56
2023-01-17T08:59:50.425Z,978.5
2023-01-17T09:00:31.181Z,978.52
2023-01-17T09:01:56.738Z,978.51
2023-01-17T09:02:37.136Z,978.54
2023-01-17T09:04:03.532Z,978.52
2023-01-17T09:04:44.333Z,978.56
2023-01-17T09:05:24.834Z,978.58
2023-01-17T09:06:05.846Z,978.58
2023-01-17T09:06:46.956Z,978.56
2023-01-17T09:07:27.880Z,978.57
2023-01-17T09:08:08.332Z,978.6
2023-01-17T09:09:30.614Z,978.6
2023-01-17T09:10:11.456Z,978.61
2023-01-17T09:10:52.136Z,978.63
2023-01-17T09:11:35.295Z,978.62
2023-01-17T09:12:15.956Z,978.63
2023-01-17T09:12:56.446Z,978.59
2023-01-17T09:13:37.484Z,978.59
2023-01-17T09:14:44.560Z,978.58
2023-01-17T09:15:25.470Z,978.59
2023-01-17T09:16:06.056Z,978.64
2023-01-17T09:16:49.416Z,978.58
2023-01-17T09:17:29.834Z,978.61
2023-01-17T09:18:10.572Z,978.64
2023-01-17T09:18:51.072Z,978.61
2023-01-17T09:19:32.699Z,978.6
2023-01-17T09:20:13.465Z,978.61
2023-01-17T09:20:54.089Z,978.61
2023-01-17T09:21:34.769Z,978.63
2023-01-17T09:22:15.764Z,978.61
2023-01-17T09:22:56.178Z,978.61
2023-01-17T09:23:36.894Z,978.63
2023-01-17T09:24:17.413Z,978.62
2023-01-17T09:24:58.144Z,978.62
2023-01-17T09:25:39.325Z,978.63
2023-01-17T09:26:20.035Z,978.62
2023-01-17T09:27:00.691Z,978.64
2023-01-17T09:27:41.559Z,978.65
2023-01-17T09:28:22.352Z,978.67
2023-01-17T09:29:03.341Z,978.65
2023-01-17T09:35:14.576Z,978.69
2023-01-17T09:35:55.114Z,978.67
2023-01-17T09:36:35.659Z,978.68
2023-01-17T09:37:16.185Z,978.67
2023-01-17T09:38:42.062Z,978.68
2023-01-17T09:39:22.979Z,978.63
2023-01-17T09:40:03.435Z,978.69
2023-01-17T09:40:43.967Z,978.65
2023-01-17T09:41:24.535Z,978.63
2023-01-17T09:42:05.213Z,978.63
2023-01-17T09:42:45.683Z,978.64
2023-01-17T09:43:26.352Z,978.66
2023-01-17T09:44:06.933Z,978.69
2023-01-17T09:44:47.428Z,978.68
2023-01-17T09:45:27.940Z,978.68
2023-01-17T09:46:08.499Z,978.71
2023-01-17T09:46:49.201Z,978.72
2023-01-17T09:47:29.768Z,978.7
2023-01-17T09:48:10.305Z,978.74
2023-01-17T09:48:50.853Z,978.75
2023-01-17T09:49:31.559Z,978.74
2023-01-17T09:50:11.965Z,978.7
2023-01-17T09:50:52.461Z,978.73
2023-01-17T09:52:13.550Z,978.81
2023-01-17T09:52:54.124Z,978.75
2023-01-17T09:53:34.685Z,978.71
2023-01-17T09:54:15.207Z,978.75
2023-01-17T09:54:55.918Z,978.76
2023-01-17T09:55:36.553Z,978.74
2023-01-17T09:56:17.092Z,978.74
2023-01-17T09:56:57.611Z,978.72
2023-01-17T09:57:38.156Z,978.77
2023-01-17T09:58:18.796Z,978.76
2023-01-17T09:58:59.920Z,978.77
2023-01-17T09:59:42.803Z,978.78
2023-01-17T10:00:20.924Z,978.77
2023-01-17T10:01:01.841Z,978.79
2023-01-17T10:01:42.364Z,978.75
2023-01-17T10:02:25.044Z,978.74
2023-01-17T10:03:03.695Z,978.76
2023-01-17T10:03:44.221Z,978.79
2023-01-17T10:04:24.750Z,978.82
2023-01-17T10:05:05.209Z,978.82
2023-01-17T10:05:46.102Z,978.82
2023-01-17T10:06:26.972Z,978.83
2023-01-17T10:07:07.477Z,978.8
2023-01-17T10:07:48.060Z,978.84
2023-01-17T10:08:28.713Z,978.85
2023-01-17T10:09:09.610Z,978.83
2023-01-17T10:09:50.144Z,978.87
2023-01-17T10:10:30.802Z,978.85
2023-01-17T10:11:11.371Z,978.84
2023-01-17T10:11:51.858Z,978.85
2023-01-17T10:12:33.165Z,978.87
2023-01-17T10:13:13.825Z,978.84
2023-01-17T10:13:54.361Z,978.84
2023-01-17T10:14:35.308Z,978.82
2023-01-17T10:15:16.079Z,978.85